createdAt,value
2019-03-21T00:01:51.360Z,55.79
2019-03-21T00:04:22.244Z,55.72
2019-03-21T00:06:53.163Z,56.04
2019-03-21T00:09:23.881Z,55.86
2019-03-21T00:11:59.950Z,55.59
2019-03-21T00:14:39.158Z,55.78
2019-03-21T00:17:13.247Z,55.71
2019-03-21T00:19:44.392Z,55.63
2019-03-21T00:22:16.437Z,55.77
2019-03-21T00:24:47.028Z,55.70
2019-03-21T00:27:17.409Z,55.67
2019-03-21T00:29:48.175Z,55.71
2019-03-21T00:32:19.170Z,56.00
2019-03-21T00:34:49.830Z,56.09
2019-03-21T00:37:20.731Z,55.91
2019-03-21T00:39:57.728Z,56.07
2019-03-21T00:42:28.242Z,56.11
2019-03-21T00:44:59.863Z,56.52
2019-03-21T00:47:30.445Z,56.43
2019-03-21T00:50:01.209Z,56.71
2019-03-21T00:52:31.897Z,57.07
2019-03-21T00:55:02.821Z,56.92
2019-03-21T00:57:33.317Z,57.14
2019-03-21T01:00:06.380Z,57.17
2019-03-21T01:02:38.150Z,57.11
2019-03-21T01:05:11.460Z,57.34
2019-03-21T01:07:41.885Z,57.30
2019-03-21T01:10:18.582Z,57.73
2019-03-21T01:12:49.105Z,57.60
2019-03-21T01:15:19.810Z,57.97
2019-03-21T01:17:50.309Z,58.15
2019-03-21T01:20:20.930Z,58.53
2019-03-21T01:22:51.414Z,58.54
2019-03-21T01:25:27.860Z,58.87
2019-03-21T01:27:58.313Z,59.23
2019-03-21T01:30:28.792Z,59.71
2019-03-21T01:32:59.361Z,60.19
2019-03-21T01:35:30.629Z,60.31
2019-03-21T01:38:02.411Z,60.39
2019-03-21T01:40:39.364Z,60.43
2019-03-21T01:43:09.981Z,60.29
2019-03-21T01:45:42.000Z,60.09
2019-03-21T01:48:12.627Z,60.29
2019-03-21T01:50:43.950Z,60.17
2019-03-21T01:53:16.142Z,60.30
2019-03-21T01:55:46.711Z,60.44
2019-03-21T01:58:17.719Z,60.51
2019-03-21T02:00:55.503Z,60.64
2019-03-21T02:03:26.992Z,60.83
2019-03-21T02:05:59.159Z,60.97
2019-03-21T02:08:29.693Z,60.81
2019-03-21T02:11:00.258Z,61.00
2019-03-21T02:13:31.002Z,61.21
2019-03-21T02:16:02.152Z,61.23
2019-03-21T02:18:32.485Z,61.53
2019-03-21T02:21:03.215Z,61.70
2019-03-21T02:23:34.029Z,61.78
2019-03-21T02:26:04.564Z,61.63
2019-03-21T02:28:35.039Z,61.72
2019-03-21T02:31:05.611Z,61.95
2019-03-21T02:33:42.366Z,61.96
2019-03-21T02:36:14.222Z,62.26
2019-03-21T02:38:44.880Z,62.19
2019-03-21T02:41:18.671Z,62.06
2019-03-21T02:43:49.213Z,62.23
2019-03-21T02:46:20.023Z,62.33
2019-03-21T02:48:51.083Z,62.67
2019-03-21T02:51:22.018Z,62.80
2019-03-21T02:53:52.357Z,63.03
2019-03-21T02:56:25.211Z,63.03
2019-03-21T02:58:56.919Z,63.46
2019-03-21T03:01:27.753Z,63.69
2019-03-21T03:03:59.260Z,63.77
2019-03-21T03:06:29.716Z,64.07
2019-03-21T03:09:00.258Z,64.50
2019-03-21T03:11:30.712Z,64.48
2019-03-21T03:14:04.340Z,64.73
2019-03-21T03:16:33.765Z,64.84
2019-03-21T03:19:04.361Z,65.09
2019-03-21T03:21:35.558Z,65.53
2019-03-21T03:24:06.497Z,65.73
2019-03-21T03:26:37.018Z,66.10
2019-03-21T03:29:07.810Z,66.23
2019-03-21T03:31:38.363Z,66.16
2019-03-21T03:34:09.262Z,65.97
2019-03-21T03:36:41.196Z,66.13
2019-03-21T03:39:11.807Z,66.25
2019-03-21T03:41:42.398Z,66.24
2019-03-21T03:44:13.045Z,66.39
2019-03-21T03:46:44.282Z,66.59
2019-03-21T03:49:14.882Z,66.81
2019-03-21T03:51:45.608Z,66.94
2019-03-21T03:54:16.271Z,67.03
2019-03-21T03:56:46.847Z,67.23
2019-03-21T03:59:17.381Z,67.21
2019-03-21T04:01:48.011Z,67.20
2019-03-21T04:04:19.162Z,67.23
2019-03-21T04:06:49.747Z,67.20
2019-03-21T04:09:20.550Z,67.05
2019-03-21T04:11:51.464Z,66.94
2019-03-21T04:14:21.881Z,66.95
2019-03-21T04:16:53.198Z,67.00
2019-03-21T04:19:23.873Z,67.19
2019-03-21T04:21:54.711Z,67.31
2019-03-21T04:24:25.219Z,67.47
2019-03-21T04:26:55.779Z,67.44
2019-03-21T04:29:26.362Z,67.39
2019-03-21T04:31:56.893Z,67.36
2019-03-21T04:34:27.407Z,67.43
2019-03-21T04:36:57.962Z,67.43
2019-03-21T04:39:28.493Z,67.47
2019-03-21T04:41:58.970Z,67.62
2019-03-21T04:44:29.594Z,67.53
2019-03-21T04:47:00.211Z,67.40
2019-03-21T04:49:32.431Z,67.53
2019-03-21T04:52:03.267Z,67.70
2019-03-21T04:54:34.162Z,67.29
2019-03-21T04:57:04.649Z,67.05
2019-03-21T04:59:35.366Z,67.11
2019-03-21T05:02:06.056Z,67.12
2019-03-21T05:04:37.492Z,67.11
2019-03-21T05:07:08.338Z,67.23
2019-03-21T05:09:38.876Z,67.08
2019-03-21T05:12:09.422Z,67.11
2019-03-21T05:14:39.898Z,67.08
2019-03-21T05:17:11.140Z,67.11
2019-03-21T05:19:41.675Z,67.13
2019-03-21T05:22:12.404Z,67.18
2019-03-21T05:24:44.204Z,67.33
2019-03-21T05:27:15.169Z,67.13
2019-03-21T05:29:45.676Z,67.39
2019-03-21T05:32:16.501Z,67.45
2019-03-21T05:34:47.684Z,67.52
2019-03-21T05:37:18.420Z,67.56
2019-03-21T05:39:49.039Z,67.50
2019-03-21T05:42:19.733Z,67.25
2019-03-21T05:44:50.515Z,67.11
2019-03-21T05:47:21.107Z,66.83
2019-03-21T05:49:51.927Z,66.48
2019-03-21T05:52:22.416Z,66.08
2019-03-21T05:54:53.050Z,66.04
2019-03-21T05:57:23.933Z,66.12
2019-03-21T05:59:54.413Z,66.05
2019-03-21T06:02:26.541Z,65.84
2019-03-21T06:04:58.314Z,65.96
2019-03-21T06:07:31.608Z,65.98
2019-03-21T06:10:02.209Z,66.07
2019-03-21T06:12:36.319Z,66.07
2019-03-21T06:15:10.486Z,66.04
2019-03-21T06:17:41.169Z,65.85
2019-03-21T06:20:29.919Z,65.62
2019-03-21T06:23:15.679Z,65.85
2019-03-21T06:26:01.490Z,65.85
2019-03-21T06:28:32.502Z,65.59
2019-03-21T06:31:03.200Z,65.24
2019-03-21T06:33:33.741Z,64.70
2019-03-21T06:36:05.364Z,64.56
2019-03-21T06:38:36.408Z,63.99
2019-03-21T06:41:07.056Z,63.98
2019-03-21T06:43:37.877Z,63.01
2019-03-21T06:46:09.905Z,62.78
2019-03-21T06:48:40.994Z,62.72
2019-03-21T06:51:11.928Z,62.46
2019-03-21T06:53:42.798Z,61.92
2019-03-21T06:56:13.644Z,61.43
2019-03-21T06:58:44.797Z,61.27
2019-03-21T07:01:15.570Z,61.18
2019-03-21T07:03:46.088Z,61.12
2019-03-21T07:06:17.904Z,60.97
2019-03-21T07:08:49.796Z,60.51
2019-03-21T07:11:20.232Z,59.44
2019-03-21T07:13:51.072Z,57.89
2019-03-21T07:16:24.974Z,55.51
2019-03-21T07:18:55.581Z,56.53
2019-03-21T07:21:27.996Z,58.36
2019-03-21T07:24:01.977Z,59.32
2019-03-21T07:26:33.579Z,59.28
2019-03-21T07:29:04.177Z,60.11
2019-03-21T07:31:34.731Z,60.87
2019-03-21T07:34:07.388Z,60.91
2019-03-21T07:36:37.992Z,60.94
2019-03-21T07:39:08.967Z,60.71
2019-03-21T07:41:40.125Z,60.84
2019-03-21T07:44:10.902Z,59.95
2019-03-21T07:46:41.713Z,59.75
2019-03-21T07:49:12.769Z,59.33
2019-03-21T07:51:45.203Z,60.11
2019-03-21T07:54:15.465Z,59.80
2019-03-21T07:56:46.249Z,60.32
2019-03-21T07:59:16.924Z,59.55
2019-03-21T08:01:47.684Z,61.01
2019-03-21T08:04:18.436Z,60.39
2019-03-21T08:06:50.099Z,58.89
2019-03-21T08:09:21.156Z,58.91
2019-03-21T08:11:51.820Z,59.38
2019-03-21T08:14:23.366Z,58.47
2019-03-21T08:16:54.267Z,57.32
2019-03-21T08:19:24.960Z,58.09
2019-03-21T08:21:57.636Z,57.71
2019-03-21T08:24:28.746Z,57.74
2019-03-21T08:26:59.133Z,56.94
2019-03-21T08:29:30.062Z,57.78
2019-03-21T08:32:00.451Z,57.78
2019-03-21T08:34:32.773Z,56.56
2019-03-21T08:37:03.537Z,55.66
2019-03-21T08:39:34.486Z,54.51
2019-03-21T08:42:05.069Z,55.05
2019-03-21T08:44:35.606Z,55.05
2019-03-21T08:47:06.276Z,54.95
2019-03-21T08:49:36.799Z,55.60
2019-03-21T08:52:07.204Z,54.58
2019-03-21T08:54:37.941Z,55.74
2019-03-21T08:57:08.438Z,54.58
2019-03-21T08:59:39.003Z,54.90
2019-03-21T09:02:09.569Z,54.17
2019-03-21T09:04:40.072Z,54.12
2019-03-21T09:07:12.671Z,54.58
2019-03-21T09:09:43.680Z,54.54
2019-03-21T09:12:14.650Z,54.71
2019-03-21T09:14:48.114Z,53.42
2019-03-21T09:17:18.758Z,52.67
2019-03-21T09:19:50.928Z,50.05
2019-03-21T09:22:21.616Z,52.92
2019-03-21T09:24:52.949Z,52.09
2019-03-21T09:27:23.420Z,54.33
2019-03-21T09:29:54.616Z,56.27
2019-03-21T09:32:26.282Z,57.03
2019-03-21T09:34:57.275Z,56.08
2019-03-21T09:37:28.531Z,52.06
2019-03-21T09:39:59.164Z,51.43
2019-03-21T09:42:30.082Z,51.02
2019-03-21T09:45:00.935Z,47.58
2019-03-21T09:47:31.748Z,45.97
2019-03-21T09:50:03.138Z,47.60
2019-03-21T09:52:33.539Z,50.01
2019-03-21T09:55:06.976Z,49.85
2019-03-21T09:57:37.483Z,50.75
2019-03-21T10:00:10.038Z,51.81
2019-03-21T10:02:41.023Z,52.64
2019-03-21T10:05:11.954Z,51.77
2019-03-21T10:07:43.564Z,51.70
2019-03-21T10:10:17.266Z,49.32
2019-03-21T10:12:47.973Z,45.09
2019-03-21T10:15:18.463Z,47.48
2019-03-21T10:17:49.114Z,49.35
2019-03-21T10:20:19.728Z,52.32
2019-03-21T10:22:50.203Z,53.47
2019-03-21T10:25:20.906Z,52.18
2019-03-21T10:27:51.692Z,52.88
2019-03-21T10:30:39.605Z,51.78
2019-03-21T10:33:11.688Z,51.72
2019-03-21T10:35:42.562Z,51.82
2019-03-21T10:38:13.164Z,50.83
2019-03-21T10:40:44.135Z,50.31
2019-03-21T10:43:15.624Z,50.25
2019-03-21T10:45:46.282Z,49.50
2019-03-21T10:48:16.812Z,49.48
2019-03-21T10:50:47.764Z,49.27
2019-03-21T10:53:18.952Z,50.38
2019-03-21T10:55:49.618Z,50.23
2019-03-21T10:58:21.650Z,48.84
2019-03-21T11:00:52.588Z,46.50
2019-03-21T11:03:23.475Z,46.26
2019-03-21T11:05:54.486Z,44.67
2019-03-21T11:08:26.787Z,46.10
2019-03-21T11:10:59.124Z,45.02
2019-03-21T11:13:29.712Z,44.38
2019-03-21T11:16:00.645Z,42.83
2019-03-21T11:18:35.910Z,41.84
2019-03-21T11:21:03.836Z,43.37
2019-03-21T11:23:35.754Z,42.87
2019-03-21T11:26:06.622Z,43.92
2019-03-21T11:28:37.075Z,44.92
2019-03-21T11:31:09.664Z,44.73
2019-03-21T11:33:40.250Z,44.62
2019-03-21T11:36:10.894Z,44.33
2019-03-21T11:38:42.752Z,45.04
2019-03-21T11:41:14.124Z,47.35
2019-03-21T11:43:46.563Z,47.60
2019-03-21T11:46:17.509Z,46.34
2019-03-21T11:48:47.951Z,45.86
2019-03-21T11:51:19.927Z,46.15
2019-03-21T11:53:50.910Z,47.85
2019-03-21T11:56:21.466Z,48.15
2019-03-21T11:58:52.221Z,48.29
2019-03-21T12:01:24.082Z,48.65
2019-03-21T12:03:54.848Z,48.57
2019-03-21T12:06:27.567Z,48.92
2019-03-21T12:08:59.599Z,48.85
2019-03-21T12:11:30.371Z,48.09
2019-03-21T12:14:03.109Z,48.85
2019-03-21T12:16:33.920Z,49.62
2019-03-21T12:19:04.961Z,49.81
2019-03-21T12:21:35.720Z,50.29
2019-03-21T12:24:07.137Z,50.08
2019-03-21T12:26:37.852Z,49.63
2019-03-21T12:29:08.581Z,49.62
2019-03-21T12:31:39.193Z,49.99
2019-03-21T12:34:09.823Z,50.19
2019-03-21T12:36:40.543Z,51.10
2019-03-21T12:39:12.344Z,52.47
2019-03-21T12:41:43.086Z,53.57
2019-03-21T12:44:13.846Z,53.45
2019-03-21T12:46:45.518Z,53.32
2019-03-21T12:49:17.232Z,53.31
2019-03-21T12:51:48.348Z,53.53
2019-03-21T12:54:19.134Z,53.54
2019-03-21T12:56:52.876Z,54.38
2019-03-21T12:59:22.454Z,54.20
2019-03-21T13:01:53.507Z,54.07
2019-03-21T13:04:24.654Z,54.38
2019-03-21T13:06:56.237Z,54.78
2019-03-21T13:09:28.085Z,54.19
2019-03-21T13:11:58.675Z,53.90
2019-03-21T13:14:29.454Z,53.34
2019-03-21T13:17:00.287Z,53.58
2019-03-21T13:19:30.777Z,53.80
2019-03-21T13:22:01.797Z,52.68
2019-03-21T13:24:32.461Z,52.51
2019-03-21T13:27:03.657Z,52.25
2019-03-21T13:29:34.726Z,52.31
2019-03-21T13:32:05.323Z,53.15
2019-03-21T13:34:36.355Z,54.05
2019-03-21T13:37:07.275Z,53.89
2019-03-21T13:39:38.046Z,53.43
2019-03-21T13:42:10.285Z,53.76
2019-03-21T13:44:41.206Z,53.97
2019-03-21T13:47:12.449Z,54.28
2019-03-21T13:49:43.777Z,54.32
2019-03-21T13:52:14.867Z,54.02
2019-03-21T13:54:48.436Z,54.46
2019-03-21T13:57:20.110Z,55.63
2019-03-21T13:59:52.521Z,54.55
2019-03-21T14:02:23.588Z,53.94
2019-03-21T14:04:54.149Z,54.22
2019-03-21T14:07:25.567Z,53.75
2019-03-21T14:09:57.006Z,53.94
2019-03-21T14:12:27.587Z,53.99
2019-03-21T14:14:59.445Z,53.93
2019-03-21T14:17:32.295Z,53.93
2019-03-21T14:20:02.867Z,54.00
2019-03-21T14:22:35.220Z,54.50
2019-03-21T14:25:07.436Z,54.75
2019-03-21T14:27:40.072Z,54.72
2019-03-21T14:30:16.946Z,54.42
2019-03-21T14:32:48.429Z,55.61
2019-03-21T14:35:19.960Z,55.11
2019-03-21T14:37:53.010Z,55.23
2019-03-21T14:40:23.766Z,55.68
2019-03-21T14:42:54.821Z,56.20
2019-03-21T14:45:25.237Z,56.03
2019-03-21T14:47:55.857Z,56.69
2019-03-21T14:50:26.283Z,57.08
2019-03-21T14:52:57.123Z,57.47
2019-03-21T14:55:27.675Z,57.51
2019-03-21T14:57:58.522Z,58.36
2019-03-21T15:00:30.152Z,58.71
2019-03-21T15:03:02.548Z,58.71
2019-03-21T15:05:33.218Z,58.98
2019-03-21T15:08:09.251Z,59.20
2019-03-21T15:10:42.731Z,59.20
2019-03-21T15:13:14.144Z,58.87
2019-03-21T15:15:45.038Z,59.21
2019-03-21T15:18:15.925Z,59.44
2019-03-21T15:20:46.794Z,59.71
2019-03-21T15:23:19.744Z,59.92
2019-03-21T15:25:50.504Z,60.01
2019-03-21T15:28:24.313Z,59.92
2019-03-21T15:30:55.834Z,60.13
2019-03-21T15:33:26.986Z,60.78
2019-03-21T15:35:59.414Z,60.89
2019-03-21T15:38:32.624Z,61.32
2019-03-21T15:41:03.540Z,61.34
2019-03-21T15:43:37.011Z,61.55
2019-03-21T15:46:10.266Z,61.87
2019-03-21T15:48:41.391Z,62.10
2019-03-21T15:51:12.222Z,62.14
2019-03-21T15:53:53.145Z,61.92
2019-03-21T15:56:15.338Z,61.87
2019-03-21T15:58:46.142Z,62.28
2019-03-21T16:01:17.087Z,62.26
2019-03-21T16:03:48.718Z,62.32
2019-03-21T16:06:19.778Z,62.49
2019-03-21T16:08:50.992Z,62.47
2019-03-21T16:11:23.356Z,62.69
2019-03-21T16:13:54.097Z,62.66
2019-03-21T16:16:24.815Z,62.92
2019-03-21T16:18:55.674Z,63.23
2019-03-21T16:21:26.414Z,63.47
2019-03-21T16:24:04.973Z,63.58
2019-03-21T16:26:29.650Z,63.49
2019-03-21T16:29:00.558Z,63.65
2019-03-21T16:31:31.341Z,64.00
2019-03-21T16:34:05.001Z,64.36
2019-03-21T16:36:36.052Z,64.62
2019-03-21T16:39:08.218Z,64.74
2019-03-21T16:41:39.269Z,65.05
2019-03-21T16:44:10.087Z,64.81
2019-03-21T16:46:40.856Z,64.91
2019-03-21T16:49:11.749Z,64.52
2019-03-21T16:51:44.287Z,64.58
2019-03-21T16:54:17.394Z,65.02
2019-03-21T16:56:48.027Z,65.37
2019-03-21T16:59:18.848Z,65.76
2019-03-21T17:01:50.173Z,66.07
2019-03-21T17:04:21.088Z,66.20
2019-03-21T17:06:52.530Z,66.37
2019-03-21T17:09:23.462Z,66.36
2019-03-21T17:11:54.841Z,66.62
2019-03-21T17:14:25.415Z,66.83
2019-03-21T17:16:56.215Z,66.62
2019-03-21T17:19:27.134Z,66.59
2019-03-21T17:21:57.823Z,66.61
2019-03-21T17:24:29.874Z,66.60
2019-03-21T17:27:01.249Z,66.58
2019-03-21T17:29:33.390Z,67.07
2019-03-21T17:32:04.156Z,67.18
2019-03-21T17:34:35.147Z,67.43
2019-03-21T17:37:07.534Z,67.59
2019-03-21T17:39:38.594Z,67.82
2019-03-21T17:42:09.398Z,67.93
2019-03-21T17:44:40.311Z,67.90
2019-03-21T17:47:11.312Z,68.06
2019-03-21T17:49:42.280Z,68.18
2019-03-21T17:52:13.453Z,68.21
2019-03-21T17:54:44.335Z,68.10
2019-03-21T17:57:14.929Z,68.05
2019-03-21T17:59:46.615Z,67.98
2019-03-21T18:02:17.293Z,67.84
2019-03-21T18:04:48.372Z,67.69
2019-03-21T18:07:20.775Z,67.72
2019-03-21T18:09:51.879Z,67.89
2019-03-21T18:12:23.226Z,67.83
2019-03-21T18:14:54.006Z,67.95
2019-03-21T18:17:26.566Z,67.97
2019-03-21T18:19:58.469Z,68.04
2019-03-21T18:22:28.999Z,68.02
2019-03-21T18:25:02.086Z,67.95
2019-03-21T18:27:34.027Z,67.97
2019-03-21T18:30:07.855Z,68.01
2019-03-21T18:32:38.773Z,68.29
2019-03-21T18:35:09.336Z,68.09
2019-03-21T18:37:40.144Z,68.18
2019-03-21T18:40:12.967Z,68.41
2019-03-21T18:42:43.368Z,68.40
2019-03-21T18:45:15.165Z,68.71
2019-03-21T18:47:45.893Z,68.23
2019-03-21T18:50:16.920Z,68.40
2019-03-21T18:52:48.786Z,68.60
2019-03-21T18:55:19.489Z,68.50
2019-03-21T18:57:50.300Z,68.54
2019-03-21T19:00:21.219Z,68.39
2019-03-21T19:02:52.950Z,68.56
2019-03-21T19:05:23.514Z,68.52
2019-03-21T19:07:55.770Z,68.87
2019-03-21T19:10:26.982Z,68.74
2019-03-21T19:12:57.580Z,68.94
2019-03-21T19:15:33.072Z,68.87
2019-03-21T19:18:02.882Z,68.90
2019-03-21T19:20:35.328Z,69.27
2019-03-21T19:23:06.104Z,69.51
2019-03-21T19:25:36.731Z,69.44
2019-03-21T19:28:09.089Z,69.48
2019-03-21T19:30:40.183Z,69.51
2019-03-21T19:33:10.992Z,69.29
2019-03-21T19:35:42.080Z,69.50
2019-03-21T19:38:15.009Z,69.19
2019-03-21T19:40:46.164Z,69.23
2019-03-21T19:43:16.821Z,69.19
2019-03-21T19:45:47.445Z,69.56
2019-03-21T19:48:18.618Z,69.27
2019-03-21T19:50:49.193Z,68.86
2019-03-21T19:53:20.027Z,69.42
2019-03-21T19:55:51.135Z,69.27
2019-03-21T19:58:22.001Z,69.48
2019-03-21T20:00:52.982Z,69.28
2019-03-21T20:03:24.836Z,69.66
2019-03-21T20:06:00.536Z,69.17
2019-03-21T20:08:30.137Z,69.50
2019-03-21T20:11:01.795Z,69.21
2019-03-21T20:13:33.245Z,69.44
2019-03-21T20:16:03.894Z,69.49
2019-03-21T20:18:34.921Z,69.67
2019-03-21T20:21:06.160Z,70.03
2019-03-21T20:23:37.944Z,70.07
2019-03-21T20:26:11.923Z,70.36
2019-03-21T20:28:42.752Z,70.21
2019-03-21T20:31:13.773Z,69.96
2019-03-21T20:33:44.636Z,70.16
2019-03-21T20:36:15.366Z,70.04
2019-03-21T20:38:45.924Z,70.35
2019-03-21T20:41:17.395Z,70.50
2019-03-21T20:43:48.614Z,70.45
2019-03-21T20:46:19.999Z,70.81
2019-03-21T20:48:49.981Z,70.71
2019-03-21T20:51:20.868Z,70.97
2019-03-21T20:53:53.365Z,70.69
2019-03-21T20:56:24.086Z,70.97
2019-03-21T20:58:56.518Z,70.93
2019-03-21T21:01:27.461Z,70.97
2019-03-21T21:03:58.134Z,71.07
2019-03-21T21:06:29.941Z,71.50
2019-03-21T21:09:00.658Z,71.63
2019-03-21T21:11:35.189Z,71.70
2019-03-21T21:14:06.725Z,71.68
2019-03-21T21:16:38.280Z,71.75
2019-03-21T21:19:09.173Z,71.77
2019-03-21T21:21:39.983Z,72.08
2019-03-21T21:24:10.846Z,72.16
2019-03-21T21:26:41.646Z,72.42
2019-03-21T21:29:12.973Z,72.64
2019-03-21T21:31:43.586Z,72.77
2019-03-21T21:34:14.078Z,73.03
2019-03-21T21:36:44.457Z,73.14
2019-03-21T21:39:15.251Z,73.32
2019-03-21T21:41:47.683Z,73.34
2019-03-21T21:44:18.470Z,73.29
2019-03-21T21:46:49.716Z,73.42
2019-03-21T21:49:20.248Z,73.52
2019-03-21T21:51:51.395Z,73.55
2019-03-21T21:54:22.864Z,74.04
2019-03-21T21:56:55.001Z,74.37
2019-03-21T21:59:25.694Z,74.27
2019-03-21T22:01:56.122Z,74.18
2019-03-21T22:04:26.475Z,74.22
2019-03-21T22:06:57.233Z,74.20
2019-03-21T22:09:28.346Z,74.22
2019-03-21T22:11:59.588Z,74.33
2019-03-21T22:14:31.626Z,74.41
2019-03-21T22:17:02.897Z,74.50
2019-03-21T22:19:33.874Z,74.60
2019-03-21T22:22:04.742Z,74.58
2019-03-21T22:24:35.567Z,74.77
2019-03-21T22:27:06.981Z,74.91
2019-03-21T22:29:37.844Z,74.89
2019-03-21T22:32:09.597Z,74.91
2019-03-21T22:34:40.176Z,74.96
2019-03-21T22:37:10.807Z,75.24
2019-03-21T22:39:41.446Z,75.50
2019-03-21T22:42:12.004Z,75.53
2019-03-21T22:44:43.087Z,75.50
2019-03-21T22:47:13.914Z,75.48
2019-03-21T22:49:50.627Z,75.26
2019-03-21T22:52:21.516Z,75.42
2019-03-21T22:54:52.336Z,75.34
2019-03-21T22:57:23.831Z,75.35
2019-03-21T22:59:54.604Z,75.46
2019-03-21T23:02:25.326Z,75.44
2019-03-21T23:04:55.973Z,75.62
2019-03-21T23:07:26.945Z,75.63
2019-03-21T23:09:58.151Z,75.62
2019-03-21T23:12:30.774Z,75.61
2019-03-21T23:15:02.549Z,75.80
2019-03-21T23:17:33.507Z,75.93
2019-03-21T23:20:06.188Z,76.00
2019-03-21T23:22:37.188Z,76.00
2019-03-21T23:25:09.029Z,76.09
2019-03-21T23:27:40.207Z,76.21
2019-03-21T23:30:17.657Z,76.33
2019-03-21T23:32:48.221Z,76.40
2019-03-21T23:35:19.203Z,76.38
2019-03-21T23:37:49.589Z,76.34
2019-03-21T23:40:20.829Z,76.33
2019-03-21T23:42:51.505Z,76.28
2019-03-21T23:45:24.004Z,76.22
2019-03-21T23:47:55.015Z,76.27
2019-03-21T23:50:25.698Z,76.46
2019-03-21T23:52:56.360Z,76.41
2019-03-21T23:55:26.998Z,76.99
2019-03-21T23:57:57.695Z,76.96
